createdAt,value
2022-09-13T00:01:03.759Z,0.40
2022-09-13T00:03:31.461Z,0.40
2022-09-13T00:05:59.830Z,0.50
2022-09-13T00:08:27.101Z,0.40
2022-09-13T00:10:54.555Z,0.55
2022-09-13T00:13:21.942Z,0.32
2022-09-13T00:15:50.226Z,0.22
2022-09-13T00:18:18.144Z,0.40
2022-09-13T00:20:45.561Z,0.40
2022-09-13T00:23:13.232Z,0.43
2022-09-13T00:25:41.144Z,0.30
2022-09-13T00:28:08.552Z,0.32
2022-09-13T00:30:35.922Z,0.32
2022-09-13T00:33:04.770Z,0.40
2022-09-13T00:35:32.533Z,0.30
2022-09-13T00:38:01.038Z,0.40
2022-09-13T00:40:30.674Z,0.32
2022-09-13T00:42:58.160Z,0.30
2022-09-13T00:45:25.592Z,0.50
2022-09-13T00:47:56.487Z,0.20
2022-09-13T00:50:26.748Z,0.40
2022-09-13T00:53:00.362Z,0.30
2022-09-13T00:55:29.704Z,0.30
2022-09-13T00:57:59.791Z,0.40
2022-09-13T01:00:27.137Z,0.40
2022-09-13T01:02:56.615Z,0.30
2022-09-13T01:05:26.205Z,0.40
2022-09-13T01:07:53.558Z,0.43
2022-09-13T01:10:21.166Z,0.40
2022-09-13T01:13:01.687Z,0.52
2022-09-13T01:15:31.060Z,0.40
2022-09-13T01:17:58.786Z,0.30
2022-09-13T01:20:34.108Z,0.40
2022-09-13T01:23:07.603Z,0.30
2022-09-13T01:25:47.849Z,0.20
2022-09-13T01:28:47.448Z,0.40
2022-09-13T01:31:20.793Z,0.30
2022-09-13T01:34:01.300Z,0.30
2022-09-13T01:36:32.880Z,0.40
2022-09-13T01:39:05.327Z,0.40
2022-09-13T01:41:35.436Z,0.30
2022-09-13T01:44:06.199Z,0.38
2022-09-13T01:46:52.366Z,0.28
2022-09-13T01:49:20.063Z,0.40
2022-09-13T01:52:10.593Z,0.40
2022-09-13T01:54:58.184Z,0.20
2022-09-13T01:57:31.052Z,0.50
2022-09-13T02:00:03.623Z,0.30
2022-09-13T02:02:33.407Z,0.40
2022-09-13T02:05:03.398Z,0.30
2022-09-13T02:07:36.784Z,0.30
2022-09-13T02:10:08.832Z,0.30
2022-09-13T02:12:37.270Z,0.50
2022-09-13T02:15:08.281Z,0.30
2022-09-13T02:17:48.695Z,0.30
2022-09-13T02:20:28.718Z,0.28
2022-09-13T02:22:58.199Z,0.30
2022-09-13T02:25:27.066Z,0.20
2022-09-13T02:27:59.018Z,0.20
2022-09-13T02:30:26.821Z,0.30
2022-09-13T02:32:58.751Z,0.30
2022-09-13T02:35:29.557Z,0.40
2022-09-13T02:37:59.357Z,0.40
2022-09-13T02:40:28.184Z,0.30
2022-09-13T02:43:16.124Z,0.30
2022-09-13T02:45:48.460Z,0.30
2022-09-13T02:48:20.966Z,0.55
2022-09-13T02:51:04.559Z,0.30
2022-09-13T02:53:39.612Z,0.20
2022-09-13T02:56:13.352Z,0.30
2022-09-13T02:58:46.579Z,0.35
2022-09-13T03:01:14.569Z,0.50
2022-09-13T03:03:42.187Z,0.20
2022-09-13T03:06:09.671Z,0.30
2022-09-13T03:08:38.110Z,0.20
2022-09-13T03:11:26.244Z,0.20
2022-09-13T03:14:11.911Z,0.37
2022-09-13T03:16:45.128Z,0.35
2022-09-13T03:19:21.618Z,0.30
2022-09-13T03:22:03.805Z,0.40
2022-09-13T03:24:49.271Z,0.22
2022-09-13T03:27:34.958Z,0.30
2022-09-13T03:30:07.351Z,0.30
2022-09-13T03:32:49.934Z,0.20
2022-09-13T03:35:23.410Z,0.30
2022-09-13T03:37:59.984Z,0.40
2022-09-13T03:40:50.800Z,0.40
2022-09-13T03:43:50.514Z,0.20
2022-09-13T03:46:32.657Z,0.82
2022-09-13T03:49:19.175Z,0.40
2022-09-13T03:51:48.392Z,0.20
2022-09-13T03:54:17.467Z,0.30
2022-09-13T03:56:44.971Z,0.30
2022-09-13T03:59:12.199Z,0.70
2022-09-13T04:01:39.555Z,0.30
2022-09-13T04:04:06.955Z,0.35
2022-09-13T04:06:34.298Z,0.40
2022-09-13T04:09:01.867Z,0.30
2022-09-13T04:11:32.151Z,0.30
2022-09-13T04:13:59.550Z,0.40
2022-09-13T04:16:26.821Z,0.30
2022-09-13T04:18:54.243Z,0.60
2022-09-13T04:21:22.062Z,0.30
2022-09-13T04:23:50.921Z,0.33
2022-09-13T04:26:18.238Z,0.20
2022-09-13T04:28:45.666Z,0.30
2022-09-13T04:31:12.964Z,0.30
2022-09-13T04:33:41.333Z,0.40
2022-09-13T04:36:08.661Z,0.40
2022-09-13T04:38:37.056Z,0.37
2022-09-13T04:41:04.464Z,0.40
2022-09-13T04:43:31.787Z,0.40
2022-09-13T04:46:01.935Z,0.40
2022-09-13T04:48:29.712Z,0.47
2022-09-13T04:51:02.310Z,0.40
2022-09-13T04:53:29.649Z,0.40
2022-09-13T04:56:01.911Z,0.70
2022-09-13T04:58:29.627Z,0.30
2022-09-13T05:01:03.459Z,0.40
2022-09-13T05:03:31.572Z,0.20
2022-09-13T05:06:04.826Z,0.35
2022-09-13T05:08:32.699Z,0.50
2022-09-13T05:11:00.301Z,0.40
2022-09-13T05:13:27.940Z,0.30
2022-09-13T05:15:59.040Z,0.40
2022-09-13T05:18:29.976Z,0.40
2022-09-13T05:20:58.287Z,0.30
2022-09-13T05:23:29.246Z,0.37
2022-09-13T05:26:01.086Z,0.50
2022-09-13T05:28:29.294Z,0.40
2022-09-13T05:31:02.106Z,0.50
2022-09-13T05:33:30.734Z,0.50
2022-09-13T05:35:58.148Z,0.55
2022-09-13T05:38:25.672Z,0.40
2022-09-13T05:41:00.112Z,0.50
2022-09-13T05:43:28.277Z,0.30
2022-09-13T05:46:21.990Z,0.40
2022-09-13T05:48:49.948Z,0.40
2022-09-13T05:51:21.435Z,0.50
2022-09-13T05:53:49.597Z,0.70
2022-09-13T05:56:21.231Z,0.40
2022-09-13T05:58:49.505Z,0.50
2022-09-13T06:01:18.036Z,0.77
2022-09-13T06:03:48.524Z,0.50
2022-09-13T06:06:16.472Z,0.30
2022-09-13T06:08:44.189Z,0.52
2022-09-13T06:11:12.517Z,0.60
2022-09-13T06:13:40.363Z,0.77
2022-09-13T06:16:09.695Z,1.08
2022-09-13T06:18:37.489Z,0.38
2022-09-13T06:21:09.236Z,0.50
2022-09-13T06:23:40.498Z,0.80
2022-09-13T06:26:09.061Z,0.50
2022-09-13T06:28:37.640Z,0.63
2022-09-13T06:31:06.315Z,0.40
2022-09-13T06:33:34.385Z,0.50
2022-09-13T06:36:02.672Z,0.40
2022-09-13T06:38:30.090Z,0.40
2022-09-13T06:41:08.127Z,0.45
2022-09-13T06:43:35.528Z,0.60
2022-09-13T06:46:07.224Z,0.40
2022-09-13T06:48:35.522Z,0.40
2022-09-13T06:51:04.043Z,0.40
2022-09-13T06:53:32.121Z,0.47
2022-09-13T06:56:05.676Z,0.60
2022-09-13T06:58:33.589Z,0.50
2022-09-13T07:01:10.644Z,0.52
2022-09-13T07:03:41.197Z,0.32
2022-09-13T07:06:09.747Z,0.45
2022-09-13T07:08:37.533Z,0.60
2022-09-13T07:11:05.053Z,0.55
2022-09-13T07:13:32.479Z,0.40
2022-09-13T07:16:02.626Z,0.50
2022-09-13T07:18:30.085Z,0.50
2022-09-13T07:21:01.837Z,0.55
2022-09-13T07:23:29.246Z,0.60
2022-09-13T07:26:01.969Z,0.50
2022-09-13T07:28:35.094Z,0.50
2022-09-13T07:31:11.334Z,0.73
2022-09-13T07:33:39.773Z,0.50
2022-09-13T07:36:07.842Z,0.35
2022-09-13T07:38:36.129Z,0.55
2022-09-13T07:41:06.525Z,0.30
2022-09-13T07:43:35.046Z,0.50
2022-09-13T07:46:06.295Z,0.40
2022-09-13T07:48:35.599Z,0.47
2022-09-13T07:51:04.506Z,0.30
2022-09-13T07:53:32.357Z,0.60
2022-09-13T07:56:06.571Z,0.50
2022-09-13T07:58:34.474Z,0.52
2022-09-13T08:01:31.347Z,0.77
2022-09-13T08:04:00.102Z,0.50
2022-09-13T08:07:04.344Z,0.52
2022-09-13T08:09:31.742Z,0.30
2022-09-13T08:11:59.288Z,0.30
2022-09-13T08:14:26.680Z,0.38
2022-09-13T08:16:57.172Z,0.50
2022-09-13T08:19:24.506Z,0.22
2022-09-13T08:21:51.894Z,0.38
2022-09-13T08:24:21.356Z,0.30
2022-09-13T08:26:49.070Z,0.47
2022-09-13T08:29:16.974Z,0.50
2022-09-13T08:31:44.321Z,0.50
2022-09-13T08:34:12.979Z,0.40
2022-09-13T08:36:41.262Z,0.80
2022-09-13T08:39:10.267Z,0.50
2022-09-13T08:41:45.441Z,0.20
2022-09-13T08:44:15.681Z,0.47
2022-09-13T08:46:44.821Z,0.38
2022-09-13T08:49:16.376Z,0.50
2022-09-13T08:51:55.563Z,0.20
2022-09-13T08:54:23.063Z,0.32
2022-09-13T08:56:53.670Z,1.00
2022-09-13T08:59:27.287Z,0.60
2022-09-13T09:01:57.728Z,0.50
2022-09-13T09:04:28.955Z,0.30
2022-09-13T09:07:35.247Z,0.25
2022-09-13T09:10:14.165Z,0.32
2022-09-13T09:12:47.098Z,0.45
2022-09-13T09:15:14.443Z,0.40
2022-09-13T09:17:48.841Z,0.32
2022-09-13T09:20:19.062Z,0.45
2022-09-13T09:22:47.023Z,0.73
2022-09-13T09:25:14.762Z,0.70
2022-09-13T09:27:44.834Z,0.80
2022-09-13T09:30:15.387Z,0.50
2022-09-13T09:32:42.949Z,0.47
2022-09-13T09:35:10.396Z,0.45
2022-09-13T09:37:38.963Z,0.50
2022-09-13T09:40:10.286Z,0.50
2022-09-13T09:42:47.867Z,0.45
2022-09-13T09:45:32.803Z,0.50
2022-09-13T09:48:01.782Z,1.85
2022-09-13T09:50:34.388Z,1.60
2022-09-13T09:53:23.918Z,0.40
2022-09-13T09:56:00.646Z,0.38
2022-09-13T09:58:38.161Z,0.40
2022-09-13T10:01:10.847Z,3.28
2022-09-13T10:03:40.202Z,0.38
2022-09-13T10:06:09.191Z,0.30
2022-09-13T10:08:38.223Z,0.40
2022-09-13T10:11:06.907Z,0.28
2022-09-13T10:13:34.278Z,0.25
2022-09-13T10:16:03.386Z,0.30
2022-09-13T10:18:44.374Z,0.40
2022-09-13T10:21:18.781Z,0.38
2022-09-13T10:23:47.535Z,0.30
2022-09-13T10:26:14.942Z,0.30
2022-09-13T10:28:57.127Z,0.28
2022-09-13T10:31:29.396Z,0.20
2022-09-13T10:34:05.928Z,0.30
2022-09-13T10:36:52.155Z,0.30
2022-09-13T10:39:21.646Z,0.20
2022-09-13T10:42:00.245Z,0.30
2022-09-13T10:44:32.803Z,0.20
2022-09-13T10:47:02.027Z,0.30
2022-09-13T10:49:55.407Z,0.30
2022-09-13T10:52:31.330Z,0.20
2022-09-13T10:55:17.225Z,0.25
2022-09-13T10:57:45.214Z,0.60
2022-09-13T11:00:14.047Z,0.60
2022-09-13T11:02:44.427Z,0.70
2022-09-13T11:05:12.113Z,0.30
2022-09-13T11:07:49.974Z,0.50
2022-09-13T11:10:20.595Z,0.20
2022-09-13T11:12:54.199Z,0.20
2022-09-13T11:15:40.288Z,0.30
2022-09-13T11:18:07.720Z,0.20
2022-09-13T11:20:38.043Z,0.20
2022-09-13T11:23:05.367Z,0.20
2022-09-13T11:25:40.553Z,0.13
2022-09-13T11:28:26.388Z,0.30
2022-09-13T11:31:08.397Z,0.20
2022-09-13T11:33:35.680Z,0.30
2022-09-13T11:36:08.905Z,0.20
2022-09-13T11:38:42.313Z,0.13
2022-09-13T11:41:14.853Z,0.35
2022-09-13T11:43:49.196Z,0.20
2022-09-13T11:46:40.052Z,0.15
2022-09-13T11:49:17.445Z,0.20
2022-09-13T11:51:47.673Z,0.20
2022-09-13T11:54:18.007Z,0.20
2022-09-13T11:56:51.047Z,0.20
2022-09-13T11:59:34.751Z,0.20
2022-09-13T12:02:04.880Z,0.20
2022-09-13T12:04:35.616Z,0.10
2022-09-13T12:07:07.528Z,0.20
2022-09-13T12:09:58.418Z,0.20
2022-09-13T12:12:29.187Z,0.20
2022-09-13T12:15:00.506Z,0.22
2022-09-13T12:17:35.961Z,0.22
2022-09-13T12:20:04.882Z,0.15
2022-09-13T12:22:34.509Z,0.25
2022-09-13T12:25:07.718Z,0.20
2022-09-13T12:27:40.150Z,0.20
2022-09-13T12:30:21.786Z,0.35
2022-09-13T12:32:50.050Z,0.30
2022-09-13T12:35:32.308Z,0.15
2022-09-13T12:38:05.596Z,0.20
2022-09-13T12:40:51.757Z,0.20
2022-09-13T12:43:39.369Z,0.30
2022-09-13T12:46:09.890Z,0.32
2022-09-13T12:48:50.464Z,0.30
2022-09-13T12:51:36.356Z,0.25
2022-09-13T12:54:12.454Z,0.22
2022-09-13T12:56:53.624Z,0.30
2022-09-13T12:59:42.290Z,0.40
2022-09-13T13:02:28.202Z,0.55
2022-09-13T13:04:59.006Z,0.30
2022-09-13T13:07:26.638Z,0.30
2022-09-13T13:09:56.783Z,0.22
2022-09-13T13:12:30.003Z,0.43
2022-09-13T13:14:57.943Z,0.50
2022-09-13T13:17:37.373Z,0.50
2022-09-13T13:20:23.588Z,0.50
2022-09-13T13:22:51.552Z,0.57
2022-09-13T13:25:33.981Z,0.68
2022-09-13T13:28:01.339Z,0.90
2022-09-13T13:30:41.108Z,0.50
2022-09-13T13:33:17.560Z,1.00
2022-09-13T13:35:45.228Z,0.55
2022-09-13T13:38:34.665Z,0.55
2022-09-13T13:41:28.225Z,0.30
2022-09-13T13:43:55.694Z,0.35
2022-09-13T13:46:22.940Z,0.50
2022-09-13T13:48:50.410Z,0.22
2022-09-13T13:51:19.535Z,0.30
2022-09-13T13:53:49.988Z,0.28
2022-09-13T13:56:26.019Z,0.40
2022-09-13T13:59:15.978Z,0.30
2022-09-13T14:01:46.392Z,0.30
2022-09-13T14:04:19.864Z,0.32
2022-09-13T14:06:49.835Z,0.35
2022-09-13T14:09:20.443Z,0.30
2022-09-13T14:12:11.346Z,0.38
2022-09-13T14:14:50.465Z,0.43
2022-09-13T14:17:23.753Z,0.50
2022-09-13T14:19:56.628Z,0.30
2022-09-13T14:22:25.427Z,0.40
2022-09-13T14:25:00.420Z,0.35
2022-09-13T14:27:32.243Z,0.40
2022-09-13T14:30:04.653Z,0.57
2022-09-13T14:32:41.868Z,0.50
2022-09-13T14:35:24.737Z,0.40
2022-09-13T14:37:52.256Z,0.40
2022-09-13T14:40:22.449Z,0.40
2022-09-13T14:42:51.924Z,0.70
2022-09-13T14:45:32.003Z,0.60
2022-09-13T14:48:04.349Z,0.60
2022-09-13T14:50:34.628Z,0.50
2022-09-13T14:53:04.643Z,0.65
2022-09-13T14:55:37.865Z,0.55
2022-09-13T14:58:07.066Z,0.55
2022-09-13T15:00:37.016Z,0.90
2022-09-13T15:03:11.835Z,0.60
2022-09-13T15:05:40.122Z,0.80
2022-09-13T15:08:26.622Z,1.00
2022-09-13T15:10:54.045Z,0.80
2022-09-13T15:13:21.412Z,1.00
2022-09-13T15:15:48.894Z,1.15
2022-09-13T15:18:16.271Z,0.50
2022-09-13T15:20:49.632Z,0.70
2022-09-13T15:23:36.393Z,0.47
2022-09-13T15:26:06.814Z,0.68
2022-09-13T15:28:38.041Z,0.55
2022-09-13T15:31:05.511Z,0.50
2022-09-13T15:33:36.706Z,0.70
2022-09-13T15:36:14.301Z,0.50
2022-09-13T15:38:59.972Z,0.80
2022-09-13T15:41:35.068Z,0.55
2022-09-13T15:44:04.727Z,0.50
2022-09-13T15:46:54.298Z,0.80
2022-09-13T15:49:26.643Z,0.80
2022-09-13T15:51:58.693Z,0.75
2022-09-13T15:54:28.317Z,0.65
2022-09-13T15:56:55.694Z,1.02
2022-09-13T15:59:23.139Z,0.65
2022-09-13T16:01:51.118Z,0.50
2022-09-13T16:04:18.646Z,0.60
2022-09-13T16:06:46.732Z,0.90
2022-09-13T16:09:20.071Z,0.70
2022-09-13T16:11:48.175Z,0.70
2022-09-13T16:14:15.959Z,0.60
2022-09-13T16:16:43.540Z,0.80
2022-09-13T16:19:18.018Z,0.65
2022-09-13T16:21:45.663Z,0.70
2022-09-13T16:24:13.106Z,0.77
2022-09-13T16:26:40.743Z,1.08
2022-09-13T16:29:08.626Z,0.57
2022-09-13T16:31:36.195Z,0.80
2022-09-13T16:34:03.717Z,0.80
2022-09-13T16:36:31.167Z,0.65
2022-09-13T16:38:58.842Z,0.80
2022-09-13T16:41:26.324Z,0.70
2022-09-13T16:43:56.151Z,0.73
2022-09-13T16:46:23.518Z,0.80
2022-09-13T16:48:54.721Z,0.63
2022-09-13T16:51:22.228Z,0.70
2022-09-13T16:53:50.621Z,0.80
2022-09-13T16:56:19.425Z,1.08
2022-09-13T16:58:47.410Z,0.80
2022-09-13T17:01:16.294Z,0.82
2022-09-13T17:03:43.682Z,0.70
2022-09-13T17:06:12.643Z,0.80
2022-09-13T17:08:41.015Z,0.60
2022-09-13T17:11:09.706Z,0.90
2022-09-13T17:13:41.019Z,0.50
2022-09-13T17:16:19.953Z,0.52
2022-09-13T17:18:47.597Z,0.73
2022-09-13T17:21:15.148Z,0.70
2022-09-13T17:23:42.649Z,0.60
2022-09-13T17:26:10.064Z,0.93
2022-09-13T17:28:37.471Z,0.60
2022-09-13T17:31:05.479Z,0.60
2022-09-13T17:33:32.904Z,0.70
2022-09-13T17:36:04.583Z,0.90
2022-09-13T17:38:31.997Z,0.82
2022-09-13T17:41:00.238Z,0.63
2022-09-13T17:43:27.583Z,0.70
2022-09-13T17:45:54.925Z,0.75
2022-09-13T17:48:22.367Z,0.65
2022-09-13T17:50:50.894Z,0.90
2022-09-13T17:53:18.326Z,0.88
2022-09-13T17:55:49.455Z,0.88
2022-09-13T17:58:17.077Z,0.80
2022-09-13T18:00:44.640Z,0.70
2022-09-13T18:03:12.231Z,0.80
2022-09-13T18:05:39.726Z,0.90
2022-09-13T18:08:07.087Z,1.00
2022-09-13T18:10:58.065Z,0.70
2022-09-13T18:13:22.463Z,0.90
2022-09-13T18:16:22.330Z,0.82
2022-09-13T18:18:53.354Z,0.80
2022-09-13T18:21:22.501Z,0.90
2022-09-13T18:23:50.688Z,0.80
2022-09-13T18:26:19.207Z,0.85
2022-09-13T18:28:47.118Z,1.02
2022-09-13T18:31:15.852Z,0.80
2022-09-13T18:33:43.785Z,0.88
2022-09-13T18:36:12.844Z,1.05
2022-09-13T18:38:41.746Z,0.90
2022-09-13T18:41:12.006Z,0.80
2022-09-13T18:43:40.561Z,0.90
2022-09-13T18:46:09.494Z,1.23
2022-09-13T18:48:37.862Z,1.00
2022-09-13T18:51:05.849Z,0.70
2022-09-13T18:53:35.184Z,1.00
2022-09-13T18:56:03.445Z,1.00
2022-09-13T18:58:31.969Z,1.25
2022-09-13T19:01:09.289Z,1.00
2022-09-13T19:03:37.321Z,1.15
2022-09-13T19:06:15.370Z,0.90
2022-09-13T19:08:43.333Z,1.13
2022-09-13T19:11:29.216Z,1.10
2022-09-13T19:13:58.602Z,0.80
2022-09-13T19:16:28.910Z,0.70
2022-09-13T19:18:56.995Z,0.88
2022-09-13T19:21:29.581Z,0.90
2022-09-13T19:24:09.171Z,1.00
2022-09-13T19:26:39.609Z,1.00
2022-09-13T19:29:08.079Z,1.10
2022-09-13T19:31:37.019Z,1.00
2022-09-13T19:34:06.342Z,0.75
2022-09-13T19:36:35.244Z,0.60
2022-09-13T19:39:03.212Z,0.90
2022-09-13T19:41:30.642Z,0.70
2022-09-13T19:44:00.289Z,0.80
2022-09-13T19:46:38.149Z,1.17
2022-09-13T19:49:06.323Z,1.67
2022-09-13T19:51:37.832Z,1.38
2022-09-13T19:54:06.061Z,0.90
2022-09-13T19:56:34.872Z,0.80
2022-09-13T19:59:03.031Z,1.17
2022-09-13T20:01:37.959Z,0.90
2022-09-13T20:04:06.638Z,1.00
2022-09-13T20:06:35.501Z,1.02
2022-09-13T20:09:04.256Z,1.00
2022-09-13T20:11:32.055Z,1.08
2022-09-13T20:14:00.168Z,1.20
2022-09-13T20:16:29.092Z,1.17
2022-09-13T20:18:57.463Z,1.60
2022-09-13T20:21:25.574Z,0.95
2022-09-13T20:24:01.042Z,0.80
2022-09-13T20:26:28.975Z,0.85
2022-09-13T20:28:57.628Z,1.10
2022-09-13T20:31:25.577Z,0.60
2022-09-13T20:34:00.091Z,0.98
2022-09-13T20:36:28.408Z,0.60
2022-09-13T20:39:02.423Z,0.80
2022-09-13T20:41:31.461Z,1.10
2022-09-13T20:44:01.907Z,0.77
2022-09-13T20:46:31.584Z,0.93
2022-09-13T20:48:59.329Z,1.25
2022-09-13T20:51:29.601Z,1.23
2022-09-13T20:54:00.728Z,0.90
2022-09-13T20:56:34.462Z,0.77
2022-09-13T20:59:02.446Z,0.93
2022-09-13T21:01:31.319Z,0.93
2022-09-13T21:04:03.132Z,0.93
2022-09-13T21:06:32.933Z,1.02
2022-09-13T21:09:00.736Z,0.77
2022-09-13T21:11:36.061Z,0.90
2022-09-13T21:14:04.549Z,0.80
2022-09-13T21:16:33.621Z,0.63
2022-09-13T21:19:01.122Z,1.13
2022-09-13T21:21:31.069Z,0.90
2022-09-13T21:24:01.691Z,0.80
2022-09-13T21:26:30.087Z,0.90
2022-09-13T21:28:58.606Z,0.85
2022-09-13T21:31:28.291Z,0.80
2022-09-13T21:33:57.698Z,0.80
2022-09-13T21:36:25.583Z,0.98
2022-09-13T21:38:54.548Z,0.93
2022-09-13T21:41:22.568Z,0.90
2022-09-13T21:43:50.030Z,1.02
2022-09-13T21:46:25.194Z,0.75
2022-09-13T21:48:57.667Z,1.23
2022-09-13T21:51:26.722Z,0.90
2022-09-13T21:53:58.456Z,0.90
2022-09-13T21:56:27.638Z,0.70
2022-09-13T21:58:58.382Z,0.70
2022-09-13T22:01:26.688Z,0.70
2022-09-13T22:03:54.320Z,0.90
2022-09-13T22:06:22.375Z,0.90
2022-09-13T22:08:54.305Z,0.88
2022-09-13T22:11:22.878Z,0.70
2022-09-13T22:13:50.604Z,0.70
2022-09-13T22:16:18.864Z,0.80
2022-09-13T22:18:47.132Z,1.00
2022-09-13T22:21:17.459Z,0.90
2022-09-13T22:23:44.904Z,1.08
2022-09-13T22:26:16.726Z,2.00
2022-09-13T22:28:44.191Z,0.93
2022-09-13T22:31:22.626Z,0.90
2022-09-13T22:33:50.725Z,0.68
2022-09-13T22:36:18.893Z,1.00
2022-09-13T22:38:48.645Z,0.88
2022-09-13T22:41:21.486Z,0.90
2022-09-13T22:43:48.941Z,1.33
2022-09-13T22:46:17.783Z,1.05
2022-09-13T22:48:45.584Z,0.70
2022-09-13T22:51:13.919Z,1.15
2022-09-13T22:53:42.492Z,1.00
2022-09-13T22:56:23.843Z,0.90
2022-09-13T22:59:12.515Z,0.80
2022-09-13T23:01:39.886Z,1.05
2022-09-13T23:04:07.347Z,1.10
2022-09-13T23:06:35.504Z,1.02
2022-09-13T23:09:03.932Z,1.02
2022-09-13T23:11:32.937Z,0.90
2022-09-13T23:14:01.608Z,0.90
2022-09-13T23:16:30.707Z,1.05
2022-09-13T23:18:58.395Z,0.90
2022-09-13T23:21:27.375Z,0.90
2022-09-13T23:23:54.810Z,1.00
2022-09-13T23:26:23.389Z,1.00
2022-09-13T23:29:08.815Z,0.80
2022-09-13T23:31:40.759Z,0.80
2022-09-13T23:34:08.783Z,0.75
2022-09-13T23:36:37.646Z,0.90
2022-09-13T23:39:05.966Z,0.90
2022-09-13T23:41:34.152Z,1.00
2022-09-13T23:44:04.530Z,0.95
2022-09-13T23:46:31.993Z,0.73
2022-09-13T23:48:59.353Z,1.00
2022-09-13T23:51:27.618Z,0.80
2022-09-13T23:54:01.090Z,0.80
2022-09-13T23:56:29.393Z,0.80
2022-09-13T23:58:57.872Z,0.80
